Time;durP1;ratioP1;P1;durP2;ratioP2;P2;SDS_P1;SDS_P2;PMS_P1;PMS_P2;Temp;Humidity;BMP_temperature;BMP_pressure;BME280_temperature;BME280_humidity;BME280_pressure;Samples;Min_cycle;Max_cycle;Signal;HPM_P1;HPM_P2
2021/12/19 00:09:24;;;;;;;30.13;15.23;;;;;;;-1.34;100.00;96036.69;4952859;28;20198;-72
2021/12/19 00:11:50;;;;;;;27.53;15.63;;;;;;;-1.38;100.00;96027.81;4936222;28;20603;-72
2021/12/19 00:14:18;;;;;;;21.97;13.73;;;;;;;-1.49;100.00;96024.13;4933276;29;20201;-71
2021/12/19 00:16:43;;;;;;;25.77;15.03;;;;;;;-1.26;100.00;96006.22;4934389;29;20246;-72
2021/12/19 00:19:09;;;;;;;34.83;14.57;;;;;;;-1.30;100.00;96013.41;4949849;28;20198;-72
2021/12/19 00:21:35;;;;;;;28.23;15.07;;;;;;;-1.29;100.00;96013.06;4933606;29;20218;-72
2021/12/19 00:24:02;;;;;;;28.70;15.53;;;;;;;-1.33;100.00;96009.53;4956275;28;20217;-72
2021/12/19 00:26:27;;;;;;;41.77;19.27;;;;;;;-1.12;100.00;96003.78;4972283;28;20209;-72
2021/12/19 00:28:54;;;;;;;34.03;16.30;;;;;;;-1.04;100.00;96008.16;4950871;28;20206;-72
2021/12/19 00:31:20;;;;;;;36.77;16.03;;;;;;;-1.12;100.00;96011.81;4952996;28;20703;-72
2021/12/19 00:33:45;;;;;;;38.43;16.10;;;;;;;-1.14;100.00;96024.84;4964098;28;20628;-72
2021/12/19 00:36:12;;;;;;;35.10;18.53;;;;;;;-0.78;100.00;96023.56;4957975;28;20221;-72
2021/12/19 00:38:38;;;;;;;34.50;16.77;;;;;;;-0.81;100.00;96030.41;4944495;29;20578;-72
2021/12/19 00:41:04;;;;;;;49.43;19.13;;;;;;;-1.07;100.00;96016.13;4949251;28;20211;-72
2021/12/19 00:43:43;;;;;;;34.37;17.40;;;;;;;-0.90;100.00;96018.38;4952315;28;20599;-72
2021/12/19 00:46:11;;;;;;;35.20;18.00;;;;;;;-0.86;100.00;96011.94;4952333;28;20780;-72
2021/12/19 00:48:40;;;;;;;32.73;19.10;;;;;;;-0.66;100.00;96018.03;4951118;29;20355;-72
2021/12/19 00:51:09;;;;;;;39.33;19.80;;;;;;;-0.62;100.00;96011.59;4947709;28;20599;-72
2021/12/19 00:53:34;;;;;;;33.00;18.00;;;;;;;-0.60;100.00;96003.16;4948476;29;20544;-71
2021/12/19 00:56:01;;;;;;;33.23;17.40;;;;;;;-0.73;100.00;96007.94;4944478;28;20200;-72
2021/12/19 00:58:27;;;;;;;36.67;18.33;;;;;;;-0.84;100.00;95998.16;4951834;28;20547;-72
2021/12/19 01:00:53;;;;;;;35.07;18.87;;;;;;;-0.83;100.00;95995.13;4950543;28;20734;-72
2021/12/19 01:03:19;;;;;;;34.60;19.63;;;;;;;-0.68;100.00;96007.63;4967434;28;20247;-72
2021/12/19 01:05:45;;;;;;;38.37;19.33;;;;;;;-0.64;100.00;95991.59;4975684;28;20575;-72
2021/12/19 01:08:14;;;;;;;38.10;19.93;;;;;;;-0.62;100.00;95990.13;4955088;28;20646;-72
2021/12/19 01:10:42;;;;;;;43.07;20.03;;;;;;;-0.66;100.00;95985.84;4947708;28;20707;-72
2021/12/19 01:13:09;;;;;;;37.67;20.90;;;;;;;-0.50;100.00;95976.53;4934867;29;20216;-72
2021/12/19 01:15:35;;;;;;;37.40;20.70;;;;;;;-0.65;100.00;95976.66;4936712;29;20265;-72
2021/12/19 01:18:02;;;;;;;45.40;22.63;;;;;;;-0.55;100.00;95984.88;4941466;29;20675;-72
2021/12/19 01:20:32;;;;;;;38.17;19.80;;;;;;;-0.47;100.00;96002.63;4938198;29;20225;-72
2021/12/19 01:22:58;;;;;;;35.83;19.90;;;;;;;-0.54;100.00;95999.81;4955780;28;20604;-72
2021/12/19 01:25:24;;;;;;;42.57;18.57;;;;;;;-0.72;100.00;95992.63;4969626;28;20193;-72
2021/12/19 01:27:50;;;;;;;36.87;20.93;;;;;;;-0.60;100.00;95997.81;4957985;28;20253;-72
2021/12/19 01:30:17;;;;;;;36.67;20.73;;;;;;;-0.56;100.00;95985.22;4950850;28;20694;-72
2021/12/19 01:32:44;;;;;;;38.93;21.23;;;;;;;-0.75;100.00;96004.84;4964823;28;20197;-72
2021/12/19 01:35:12;;;;;;;40.97;20.77;;;;;;;-0.80;100.00;95994.44;4969399;28;20260;-72
2021/12/19 01:37:38;;;;;;;33.63;19.27;;;;;;;-0.70;100.00;95993.03;4950979;28;20209;-72
2021/12/19 01:40:07;;;;;;;40.37;21.57;;;;;;;-0.86;100.00;95995.84;4937946;29;20241;-72
2021/12/19 01:42:36;;;;;;;38.73;20.90;;;;;;;-0.83;100.00;95997.81;4948056;29;20190;-72
2021/12/19 01:45:03;;;;;;;40.00;21.03;;;;;;;-0.87;100.00;95988.16;4953736;29;20189;-72
2021/12/19 01:47:28;;;;;;;35.97;20.93;;;;;;;-0.83;100.00;95997.03;4953608;29;20210;-72
2021/12/19 01:49:55;;;;;;;38.73;21.17;;;;;;;-0.64;100.00;95991.59;4952210;28;20703;-72
2021/12/19 01:52:22;;;;;;;40.13;21.80;;;;;;;-0.60;100.00;95989.75;4953914;29;20198;-72
2021/12/19 01:54:49;;;;;;;38.90;21.90;;;;;;;-0.57;100.00;95975.63;4954181;29;20212;-72
2021/12/19 01:57:15;;;;;;;41.37;21.87;;;;;;;-0.36;100.00;95976.75;4951579;28;20360;-72
2021/12/19 01:59:41;;;;;;;41.83;21.87;;;;;;;-0.42;100.00;95983.53;4934566;28;20198;-72
2021/12/19 02:02:07;;;;;;;35.97;19.63;;;;;;;-0.36;100.00;95986.69;4961851;28;20578;-72
2021/12/19 02:04:33;;;;;;;35.07;19.33;;;;;;;-0.40;100.00;95980.50;4955040;28;20194;-72
2021/12/19 02:07:00;;;;;;;40.13;21.37;;;;;;;-0.22;100.00;95981.56;4950477;29;20256;-72
2021/12/19 02:09:26;;;;;;;36.37;19.60;;;;;;;-0.16;100.00;95988.94;4951267;29;20284;-72
2021/12/19 02:11:52;;;;;;;36.73;19.93;;;;;;;-0.26;100.00;95973.44;4937367;28;20692;-72
2021/12/19 02:14:18;;;;;;;34.80;18.90;;;;;;;-0.36;100.00;95968.69;4952443;29;20202;-72
2021/12/19 02:16:44;;;;;;;35.20;18.80;;;;;;;-0.26;100.00;95970.75;4952836;29;20189;-72
2021/12/19 02:19:11;;;;;;;35.43;19.80;;;;;;;-0.43;100.00;95965.13;4953494;29;20336;-73
2021/12/19 02:21:38;;;;;;;30.90;18.03;;;;;;;-0.48;100.00;95960.84;4938919;28;20222;-73
2021/12/19 02:24:09;;;;;;;30.70;16.80;;;;;;;-0.61;100.00;95959.47;4952808;28;20272;-72
2021/12/19 02:26:37;;;;;;;27.73;15.70;;;;;;;-0.80;100.00;95958.78;4973863;28;20201;-72
2021/12/19 02:29:03;;;;;;;30.37;15.13;;;;;;;-0.95;100.00;95967.72;4948779;29;20203;-72
2021/12/19 02:31:30;;;;;;;32.83;15.47;;;;;;;-1.01;100.00;95971.81;4956379;28;20231;-72
2021/12/19 02:36:41;;;;;;;22.87;14.30;;;;;;;-1.13;100.00;95967.41;4954335;28;20204;-72
2021/12/19 02:50:09;;;;;;;29.13;16.37;;;;;;;-0.81;100.00;95965.25;4949346;28;20221;-72
2021/12/19 02:52:35;;;;;;;25.57;14.93;;;;;;;-0.83;100.00;95956.81;4951096;29;20228;-72
2021/12/19 02:55:01;;;;;;;27.73;15.70;;;;;;;-0.80;100.00;95953.41;4953132;29;20208;-73
2021/12/19 02:57:27;;;;;;;28.60;16.53;;;;;;;-0.93;100.00;95952.81;4936148;29;20194;-72
2021/12/19 02:59:53;;;;;;;26.70;15.57;;;;;;;-0.92;100.00;95951.69;4954247;28;20200;-72
2021/12/19 03:02:18;;;;;;;26.37;16.17;;;;;;;-0.84;100.00;95941.84;4965011;28;20284;-72
2021/12/19 03:04:53;;;;;;;25.97;14.83;;;;;;;-0.80;100.00;95945.38;4965142;28;20186;-72
2021/12/19 03:07:19;;;;;;;25.57;14.63;;;;;;;-0.77;100.00;95952.69;4953177;28;20346;-72
2021/12/19 03:18:01;;;;;;;24.50;14.30;;;;;;;-0.90;100.00;95951.34;4952749;28;20276;-72
2021/12/19 03:20:28;;;;;;;29.43;15.57;;;;;;;-0.85;100.00;95940.31;4933845;29;20225;-72
2021/12/19 03:22:54;;;;;;;27.50;15.30;;;;;;;-0.72;100.00;95933.63;4946540;29;20201;-73
2021/12/19 03:25:20;;;;;;;25.37;14.67;;;;;;;-0.72;100.00;95930.94;4967987;28;20205;-72
2021/12/19 03:27:46;;;;;;;25.10;13.63;;;;;;;-0.67;100.00;95939.47;4941189;28;20206;-72
2021/12/19 03:30:12;;;;;;;21.87;13.33;;;;;;;-0.93;100.00;95950.13;4941918;28;20217;-72
2021/12/19 03:32:38;;;;;;;24.67;14.23;;;;;;;-1.05;100.00;95953.00;4963746;28;20256;-72
2021/12/19 03:35:05;;;;;;;23.57;13.70;;;;;;;-0.83;100.00;95952.22;4961571;28;20186;-72
2021/12/19 03:37:31;;;;;;;24.27;14.40;;;;;;;-0.99;100.00;95956.16;4949149;28;20207;-72
2021/12/19 03:40:08;;;;;;;22.97;13.43;;;;;;;-0.87;100.00;95946.03;4940127;29;20259;-72
2021/12/19 03:42:46;;;;;;;23.30;13.77;;;;;;;-0.91;100.00;95947.09;4965167;28;20204;-72
2021/12/19 03:45:16;;;;;;;21.00;13.03;;;;;;;-0.74;100.00;95936.66;4936314;29;20288;-72
2021/12/19 03:47:42;;;;;;;24.57;13.43;;;;;;;-0.80;100.00;95931.97;4942621;29;20201;-72
2021/12/19 03:50:11;;;;;;;24.30;14.13;;;;;;;-0.81;100.00;95925.81;4947687;28;20718;-72
2021/12/19 03:52:37;;;;;;;24.27;14.70;;;;;;;-1.24;100.00;95916.28;4951870;29;20201;-72
2021/12/19 03:55:03;;;;;;;22.33;13.63;;;;;;;-1.37;100.00;95916.81;4953332;28;20193;-72
2021/12/19 03:57:29;;;;;;;23.63;14.77;;;;;;;-1.25;100.00;95932.72;4936589;28;20202;-72
2021/12/19 03:59:54;;;;;;;25.83;15.07;;;;;;;-1.20;100.00;95918.28;4935535;28;20213;-73
2021/12/19 04:02:27;;;;;;;26.07;15.70;;;;;;;-1.19;100.00;95925.19;4960491;28;20229;-72
2021/12/19 04:04:58;;;;;;;29.53;15.37;;;;;;;-1.11;100.00;95914.22;4949677;29;20740;-72
2021/12/19 04:07:25;;;;;;;24.43;15.10;;;;;;;-1.14;100.00;95917.63;4951072;29;20323;-71
2021/12/19 04:09:51;;;;;;;23.30;14.57;;;;;;;-0.99;100.00;95907.91;4934903;29;20656;-72
2021/12/19 04:12:18;;;;;;;27.47;15.53;;;;;;;-1.07;100.00;95917.75;4934024;29;20218;-72
2021/12/19 04:14:44;;;;;;;23.97;14.47;;;;;;;-0.89;100.00;95916.13;4943071;29;20684;-72
2021/12/19 04:17:10;;;;;;;23.90;15.47;;;;;;;-0.86;100.00;95903.88;4952244;28;20198;-73
2021/12/19 04:19:37;;;;;;;21.77;14.17;;;;;;;-0.84;100.00;95894.38;4952884;28;20194;-73
2021/12/19 04:22:03;;;;;;;23.67;14.90;;;;;;;-0.90;100.00;95889.66;4951500;29;20185;-73
2021/12/19 04:24:29;;;;;;;23.40;15.10;;;;;;;-1.00;100.00;95904.44;4950858;28;20554;-72
2021/12/19 04:26:55;;;;;;;21.53;14.67;;;;;;;-0.99;100.00;95883.78;4951320;29;20688;-73
2021/12/19 04:29:23;;;;;;;24.30;14.93;;;;;;;-1.13;100.00;95892.34;4951417;29;20610;-73
2021/12/19 04:31:49;;;;;;;21.63;14.13;;;;;;;-1.21;100.00;95893.38;4965835;28;20300;-73
2021/12/19 04:34:14;;;;;;;20.70;13.73;;;;;;;-1.11;100.00;95897.34;4954574;28;20814;-73
2021/12/19 04:36:43;;;;;;;19.10;13.30;;;;;;;-0.96;100.00;95899.91;4955008;29;20703;-73
2021/12/19 04:39:37;;;;;;;19.60;13.43;;;;;;;-1.19;100.00;95893.81;4945074;28;20300;-72
2021/12/19 04:56:39;;;;;;;20.23;13.87;;;;;;;-1.23;100.00;95883.03;4952613;28;20205;-73
2021/12/19 04:59:08;;;;;;;20.77;13.60;;;;;;;-1.21;100.00;95917.50;4943066;28;20206;-73
2021/12/19 05:04:11;;;;;;;19.30;13.33;;;;;;;-1.40;100.00;95870.09;4968095;28;20201;-72
2021/12/19 05:14:37;;;;;;;21.50;14.73;;;;;;;-1.51;100.00;95876.41;4935364;29;20657;-72
2021/12/19 05:17:10;;;;;;;19.00;13.53;;;;;;;-1.84;100.00;95871.59;4944972;29;20210;-71
2021/12/19 05:20:15;;;;;;;20.80;13.83;;;;;;;-1.66;100.00;95875.34;4935581;29;20198;-72
2021/12/19 05:22:29;;;;;;;21.13;14.97;;;;;;;-1.58;100.00;95873.59;4935064;29;20270;-72
2021/12/19 05:25:14;;;;;;;22.77;14.80;;;;;;;-1.28;100.00;95871.81;4959371;28;20205;-72
2021/12/19 05:27:53;;;;;;;22.20;14.77;;;;;;;-1.29;100.00;95856.88;4957011;28;20276;-72
2021/12/19 05:30:19;;;;;;;22.60;14.97;;;;;;;-1.20;100.00;95849.34;4959300;28;20705;-73
2021/12/19 05:32:47;;;;;;;18.90;13.37;;;;;;;-1.23;100.00;95872.31;4957021;28;20201;-72
2021/12/19 05:35:19;;;;;;;21.20;15.33;;;;;;;-1.32;100.00;95852.22;4963275;28;20261;-71
2021/12/19 05:45:57;;;;;;;22.70;15.33;;;;;;;-1.47;100.00;95861.94;4955188;28;20194;-72
2021/12/19 05:48:23;;;;;;;23.17;14.97;;;;;;;-1.38;100.00;95859.03;4952664;28;20687;-71
2021/12/19 05:50:49;;;;;;;22.40;14.97;;;;;;;-1.56;100.00;95860.63;4952413;28;20217;-72
2021/12/19 05:53:15;;;;;;;24.13;16.47;;;;;;;-1.33;100.00;95858.72;4955385;28;20242;-71
2021/12/19 05:55:41;;;;;;;25.93;15.90;;;;;;;-1.13;100.00;95851.38;4953901;28;20186;-71
2021/12/19 05:58:07;;;;;;;25.43;16.10;;;;;;;-1.36;100.00;95856.75;4949755;28;20213;-72
2021/12/19 06:00:34;;;;;;;24.07;16.47;;;;;;;-1.32;100.00;95855.69;4955439;28;20587;-71
2021/12/19 06:03:03;;;;;;;24.83;16.70;;;;;;;-1.52;100.00;95859.56;4965518;28;20195;-72
2021/12/19 06:05:29;;;;;;;24.10;16.23;;;;;;;-1.49;100.00;95861.50;4967241;28;20206;-72
2021/12/19 06:07:55;;;;;;;26.47;17.60;;;;;;;-1.45;100.00;95864.25;4952800;29;20204;-72
2021/12/19 06:10:22;;;;;;;25.37;16.53;;;;;;;-1.37;100.00;95871.28;4953207;28;20233;-72
2021/12/19 06:12:49;;;;;;;22.97;15.43;;;;;;;-1.45;100.00;95885.69;4954372;28;20194;-72
2021/12/19 06:15:15;;;;;;;22.43;16.17;;;;;;;-1.21;100.00;95858.53;4954959;28;20190;-72
2021/12/19 06:17:44;;;;;;;22.10;15.93;;;;;;;-1.41;100.00;95843.66;4953197;28;20277;-72
2021/12/19 06:20:11;;;;;;;24.30;15.70;;;;;;;-1.24;100.00;95848.53;4966538;28;20320;-72
2021/12/19 06:22:37;;;;;;;23.00;15.70;;;;;;;-1.39;100.00;95842.16;4952480;29;20205;-73
2021/12/19 06:25:04;;;;;;;24.73;16.70;;;;;;;-1.49;100.00;95839.31;4967009;28;20769;-72
2021/12/19 06:27:30;;;;;;;21.37;15.43;;;;;;;-1.38;100.00;95834.91;4948323;29;20217;-72
2021/12/19 06:29:56;;;;;;;23.37;15.53;;;;;;;-1.42;100.00;95823.34;4950939;28;21563;-72
2021/12/19 06:32:21;;;;;;;26.80;16.97;;;;;;;-1.20;100.00;95844.00;4964226;28;20221;-72
2021/12/19 06:34:47;;;;;;;23.47;15.13;;;;;;;-1.53;100.00;95836.56;4952038;28;20202;-72
2021/12/19 06:37:13;;;;;;;21.50;15.30;;;;;;;-1.37;100.00;95842.59;4949343;29;20189;-72
2021/12/19 06:39:39;;;;;;;22.60;14.53;;;;;;;-1.46;100.00;95846.66;4946854;29;20206;-72
2021/12/19 06:42:06;;;;;;;25.47;15.37;;;;;;;-1.49;100.00;95841.97;4941749;29;20672;-73
2021/12/19 06:44:33;;;;;;;22.17;15.47;;;;;;;-1.34;100.00;95857.19;4952919;28;20759;-72
2021/12/19 06:47:00;;;;;;;21.23;15.80;;;;;;;-1.30;100.00;95850.75;4947349;29;20513;-73
2021/12/19 06:49:27;;;;;;;24.30;15.23;;;;;;;-1.19;100.00;95848.25;4938649;29;20288;-71
2021/12/19 06:51:53;;;;;;;21.10;15.63;;;;;;;-1.11;100.00;95841.84;4952473;28;20603;-72
2021/12/19 06:54:19;;;;;;;23.40;17.53;;;;;;;-1.14;100.00;95841.81;4937176;29;20602;-72
2021/12/19 06:56:45;;;;;;;22.93;16.17;;;;;;;-1.24;100.00;95838.59;4952275;29;20201;-72
2021/12/19 06:59:10;;;;;;;22.03;15.63;;;;;;;-1.39;100.00;95825.31;4952213;29;20194;-72
2021/12/19 07:01:37;;;;;;;21.07;15.43;;;;;;;-1.45;100.00;95826.75;4960125;28;20209;-72
2021/12/19 07:04:03;;;;;;;23.47;16.20;;;;;;;-1.35;100.00;95820.78;4965831;28;20189;-72
2021/12/19 07:06:29;;;;;;;22.97;15.33;;;;;;;-1.43;100.00;95829.84;4941620;28;20581;-72
2021/12/19 07:08:55;;;;;;;21.83;15.70;;;;;;;-1.27;100.00;95836.63;4934537;29;20570;-72
2021/12/19 07:11:21;;;;;;;19.87;13.90;;;;;;;-1.57;100.00;95830.38;4934563;29;20218;-72
2021/12/19 07:13:47;;;;;;;22.20;15.20;;;;;;;-1.49;100.00;95836.63;4945572;29;20190;-72
2021/12/19 07:16:13;;;;;;;22.27;15.27;;;;;;;-1.27;100.00;95844.66;4953406;28;20197;-73
2021/12/19 07:18:39;;;;;;;20.53;14.00;;;;;;;-1.48;100.00;95841.63;4942741;29;20548;-73
2021/12/19 07:21:05;;;;;;;20.37;14.63;;;;;;;-1.47;100.00;95835.16;4934494;29;20596;-73
2021/12/19 07:23:31;;;;;;;18.93;12.97;;;;;;;-1.49;100.00;95831.25;4941353;29;20198;-72
2021/12/19 07:25:57;;;;;;;17.67;13.07;;;;;;;-1.56;100.00;95828.50;4955900;28;20571;-73
2021/12/19 07:28:22;;;;;;;22.63;15.53;;;;;;;-1.54;100.00;95824.31;4947149;29;20311;-72
2021/12/19 07:30:52;;;;;;;19.77;13.93;;;;;;;-1.68;100.00;95826.72;4946562;28;20212;-72
2021/12/19 07:33:18;;;;;;;18.83;13.67;;;;;;;-1.53;100.00;95825.09;4945876;28;20247;-72
2021/12/19 07:35:47;;;;;;;22.00;14.80;;;;;;;-1.46;100.00;95815.25;4950871;28;20234;-72
2021/12/19 07:38:21;;;;;;;20.07;13.83;;;;;;;-1.55;100.00;95801.34;4948735;29;20281;-72
2021/12/19 07:40:50;;;;;;;18.50;13.07;;;;;;;-1.50;100.00;95809.09;4915661;29;20253;-71
2021/12/19 07:43:34;;;;;;;18.83;12.97;;;;;;;-1.67;100.00;95806.88;4949744;28;20641;-72
2021/12/19 07:45:59;;;;;;;21.80;14.57;;;;;;;-1.67;100.00;95808.78;4951707;28;20186;-72
2021/12/19 07:48:25;;;;;;;21.30;15.20;;;;;;;-1.53;100.00;95806.34;4952277;28;20201;-72
2021/12/19 07:50:50;;;;;;;20.90;14.33;;;;;;;-1.31;100.00;95803.63;4950452;28;20225;-72
2021/12/19 07:53:16;;;;;;;18.93;14.13;;;;;;;-1.41;100.00;95803.47;4952785;28;20202;-72
2021/12/19 07:55:43;;;;;;;19.50;13.70;;;;;;;-1.46;100.00;95801.09;4951432;29;20202;-72
2021/12/19 07:58:09;;;;;;;19.43;14.13;;;;;;;-1.39;100.00;95798.53;4939219;29;20194;-72
2021/12/19 08:00:34;;;;;;;18.90;13.77;;;;;;;-1.24;100.00;95805.69;4951398;28;20226;-72
2021/12/19 08:03:00;;;;;;;17.70;12.73;;;;;;;-1.40;100.00;95795.09;4949079;28;20190;-72
2021/12/19 08:05:26;;;;;;;17.90;13.03;;;;;;;-1.34;100.00;95801.69;4952219;28;20197;-72
2021/12/19 08:07:56;;;;;;;17.53;12.70;;;;;;;-1.35;100.00;95807.41;4949484;29;20198;-72
2021/12/19 08:12:48;;;;;;;18.73;13.07;;;;;;;-1.25;100.00;95794.16;4951521;28;20189;-72
2021/12/19 08:15:15;;;;;;;16.67;12.90;;;;;;;-1.36;100.00;95801.25;4951096;29;20201;-72
2021/12/19 08:17:40;;;;;;;16.33;12.77;;;;;;;-1.30;100.00;95786.44;4947653;29;20201;-71
2021/12/19 08:20:09;;;;;;;16.37;12.13;;;;;;;-1.34;100.00;95779.50;4949412;28;20229;-72
2021/12/19 08:22:35;;;;;;;17.17;12.57;;;;;;;-1.22;100.00;95777.38;4951973;28;20201;-72
2021/12/19 08:25:02;;;;;;;17.23;12.87;;;;;;;-1.01;100.00;95781.50;4951746;28;20198;-72
2021/12/19 08:27:28;;;;;;;19.60;12.63;;;;;;;-0.84;100.00;95779.06;4949018;29;20225;-72
2021/12/19 08:29:55;;;;;;;15.97;11.53;;;;;;;-0.92;100.00;95780.13;4951029;28;20205;-72
2021/12/19 08:32:22;;;;;;;16.17;11.80;;;;;;;-0.80;100.00;95782.59;4953558;28;20217;-72
2021/12/19 08:34:47;;;;;;;17.33;12.43;;;;;;;-0.54;100.00;95777.16;4954295;28;20201;-72
2021/12/19 08:37:15;;;;;;;15.10;10.83;;;;;;;-0.66;100.00;95776.63;4950573;28;20260;-72
2021/12/19 08:39:45;;;;;;;15.67;11.80;;;;;;;-0.46;100.00;95772.66;4950290;28;20190;-74
2021/12/19 08:42:11;;;;;;;14.70;11.10;;;;;;;-0.56;100.00;95773.31;4951003;29;20221;-72
2021/12/19 08:44:38;;;;;;;14.93;11.07;;;;;;;-0.57;100.00;95771.75;4948118;29;20201;-72
2021/12/19 08:47:04;;;;;;;16.17;12.07;;;;;;;-0.58;100.00;95770.22;4948625;28;20197;-73
2021/12/19 08:49:30;;;;;;;13.40;10.47;;;;;;;-0.64;100.00;95771.66;4946771;28;20190;-72
2021/12/19 08:51:56;;;;;;;14.77;10.20;;;;;;;-0.51;100.00;95764.94;4951900;28;20232;-72
2021/12/19 08:54:22;;;;;;;12.63;10.17;;;;;;;-0.61;100.00;95755.59;4937860;29;20257;-72
2021/12/19 08:56:49;;;;;;;14.27;11.00;;;;;;;-0.66;100.00;95769.34;4948853;29;20205;-72
2021/12/19 08:59:15;;;;;;;12.73;10.27;;;;;;;-0.54;100.00;95753.00;4947211;28;20668;-72
2021/12/19 09:01:41;;;;;;;14.67;10.87;;;;;;;-0.51;100.00;95736.19;4949678;28;20218;-73
2021/12/19 09:04:07;;;;;;;13.57;9.40;;;;;;;-0.41;100.00;95757.00;4949682;28;20258;-72
2021/12/19 09:06:33;;;;;;;13.90;10.20;;;;;;;-0.35;100.00;95739.44;4949809;29;20269;-72
2021/12/19 09:08:59;;;;;;;11.77;9.10;;;;;;;-0.34;100.00;95743.66;4949129;29;20668;-72
2021/12/19 09:11:25;;;;;;;11.57;8.80;;;;;;;-0.10;100.00;95732.41;4950955;28;20249;-72
2021/12/19 09:13:51;;;;;;;12.93;9.57;;;;;;;-0.12;100.00;95736.63;4945030;28;20253;-72
2021/12/19 09:16:16;;;;;;;12.80;9.37;;;;;;;-0.11;100.00;95751.59;4965158;28;20200;-72
2021/12/19 09:18:42;;;;;;;12.73;9.63;;;;;;;0.05;100.00;95749.47;4951826;28;20228;-72
2021/12/19 09:21:08;;;;;;;13.23;9.30;;;;;;;0.14;100.00;95727.69;4954151;29;20708;-72
2021/12/19 09:23:34;;;;;;;13.57;10.57;;;;;;;0.46;100.00;95736.78;4955661;28;20196;-72
2021/12/19 09:26:00;;;;;;;14.97;10.50;;;;;;;0.38;100.00;95738.63;4951540;28;20194;-72
2021/12/19 09:28:26;;;;;;;11.93;9.10;;;;;;;0.45;100.00;95737.91;4952485;28;20710;-72
2021/12/19 09:30:52;;;;;;;11.27;9.20;;;;;;;0.33;100.00;95738.97;4954473;28;20220;-72
2021/12/19 09:33:17;;;;;;;12.87;9.00;;;;;;;0.46;100.00;95734.09;4957270;28;20279;-72
2021/12/19 09:35:43;;;;;;;13.43;8.40;;;;;;;0.63;100.00;95728.09;4952451;29;20202;-72
2021/12/19 09:38:09;;;;;;;9.20;7.93;;;;;;;0.66;100.00;95728.09;4954414;28;20926;-72
2021/12/19 09:40:38;;;;;;;9.90;8.20;;;;;;;0.76;100.00;95730.09;4952862;28;20730;-72
2021/12/19 09:43:09;;;;;;;12.60;8.00;;;;;;;0.90;100.00;95721.34;4954087;28;20217;-72
2021/12/19 09:45:34;;;;;;;11.60;8.77;;;;;;;1.01;100.00;95719.50;4951376;29;20205;-72
2021/12/19 09:48:00;;;;;;;10.70;8.30;;;;;;;1.01;100.00;95714.88;4951445;29;20205;-72
2021/12/19 09:50:28;;;;;;;9.37;7.63;;;;;;;1.15;100.00;95712.25;4940797;29;20610;-72
2021/12/19 09:52:53;;;;;;;10.67;7.63;;;;;;;1.09;100.00;95700.31;4954482;29;20194;-74
2021/12/19 09:55:21;;;;;;;10.43;7.20;;;;;;;1.26;100.00;95700.81;4951362;29;20254;-73
2021/12/19 09:57:53;;;;;;;9.77;7.67;;;;;;;1.36;100.00;95700.06;4952216;29;20216;-73
2021/12/19 10:00:20;;;;;;;9.50;7.50;;;;;;;1.46;100.00;95692.00;4954675;28;20221;-73
2021/12/19 10:02:46;;;;;;;10.40;7.33;;;;;;;1.38;100.00;95693.16;4955993;28;20210;-72
2021/12/19 10:05:19;;;;;;;9.17;6.70;;;;;;;1.31;100.00;95676.97;4953582;29;20213;-72
2021/12/19 10:07:52;;;;;;;9.20;6.40;;;;;;;1.53;100.00;95673.19;4950892;29;20198;-72
2021/12/19 10:10:26;;;;;;;7.67;6.13;;;;;;;1.61;100.00;95682.09;4951985;28;20222;-72
2021/12/19 10:12:53;;;;;;;8.77;6.40;;;;;;;1.74;100.00;95675.97;4953703;28;20201;-73
2021/12/19 10:15:27;;;;;;;8.77;6.73;;;;;;;1.76;100.00;95662.13;4954721;28;20197;-72
2021/12/19 10:18:00;;;;;;;8.20;6.30;;;;;;;1.93;100.00;95666.75;4950736;29;20325;-72
2021/12/19 10:20:25;;;;;;;8.07;6.53;;;;;;;1.88;100.00;95662.53;4954219;28;20249;-72
2021/12/19 10:22:51;;;;;;;8.77;6.87;;;;;;;2.07;100.00;95653.31;4954225;29;20340;-72
2021/12/19 10:25:19;;;;;;;8.90;6.43;;;;;;;2.02;99.22;95654.44;4952349;29;20232;-72
2021/12/19 10:27:54;;;;;;;9.67;7.73;;;;;;;1.98;100.00;95645.63;4950230;29;20221;-72
2021/12/19 10:30:24;;;;;;;8.67;7.13;;;;;;;2.24;100.00;95641.78;4952486;28;20236;-72
2021/12/19 10:32:55;;;;;;;7.13;6.13;;;;;;;2.35;100.00;95643.31;4949448;29;20205;-72
2021/12/19 10:35:23;;;;;;;6.17;5.33;;;;;;;2.32;99.27;95635.97;4950777;29;20205;-72
2021/12/19 10:37:49;;;;;;;6.27;4.90;;;;;;;2.29;98.71;95620.59;4952001;29;20221;-72
2021/12/19 10:40:15;;;;;;;8.27;5.37;;;;;;;4.42;99.25;95617.25;4951008;28;20699;-72
2021/12/19 10:42:52;;;;;;;5.53;4.77;;;;;;;5.12;88.82;95615.78;4950592;29;20206;-72
2021/12/19 10:45:30;;;;;;;6.17;4.70;;;;;;;4.78;89.07;95604.94;4940672;29;20193;-72
2021/12/19 10:48:12;;;;;;;7.13;5.30;;;;;;;4.35;87.47;95608.44;4953011;28;20676;-72
2021/12/19 10:50:49;;;;;;;7.10;6.23;;;;;;;4.17;92.42;95603.19;4951758;28;20217;-72
2021/12/19 10:53:15;;;;;;;12.73;6.30;;;;;;;3.51;89.87;95599.75;4952632;29;20667;-72
2021/12/19 10:55:47;;;;;;;7.83;6.17;;;;;;;3.13;90.71;95591.88;4952942;29;20203;-72
2021/12/19 10:58:31;;;;;;;6.80;6.00;;;;;;;3.04;90.99;95586.88;4950817;29;20712;-73
2021/12/19 11:01:12;;;;;;;5.33;4.80;;;;;;;2.97;90.78;95575.38;4951378;28;20204;-72
2021/12/19 11:03:58;;;;;;;5.50;4.43;;;;;;;3.06;91.07;95576.47;4949764;29;20212;-72
2021/12/19 11:06:31;;;;;;;5.43;4.47;;;;;;;2.95;91.82;95570.38;4950500;29;20198;-72
2021/12/19 11:08:59;;;;;;;5.70;5.10;;;;;;;2.89;91.14;95568.44;4948043;29;20197;-73
2021/12/19 11:11:55;;;;;;;6.53;5.27;;;;;;;2.87;91.58;95560.75;4967258;28;20221;-72
2021/12/19 11:14:25;;;;;;;6.33;5.47;;;;;;;2.94;93.74;95563.41;4949616;29;20225;-72
2021/12/19 11:16:57;;;;;;;6.33;5.70;;;;;;;3.01;96.65;95554.53;4950104;28;20198;-72
2021/12/19 11:19:24;;;;;;;8.63;6.00;;;;;;;3.02;99.01;95551.44;4953213;28;20229;-73
2021/12/19 11:21:50;;;;;;;8.73;6.33;;;;;;;2.95;100.00;95542.63;4952666;28;20213;-72
2021/12/19 11:24:19;;;;;;;8.33;7.20;;;;;;;2.95;100.00;95535.31;4935980;29;20684;-72
2021/12/19 11:26:48;;;;;;;8.33;6.70;;;;;;;2.98;100.00;95520.25;4949712;29;20221;-73
2021/12/19 11:29:14;;;;;;;9.10;6.90;;;;;;;3.07;100.00;95517.91;4933048;29;20193;-72
2021/12/19 11:31:45;;;;;;;6.17;5.57;;;;;;;3.22;100.00;95530.91;4952439;28;20288;-72
2021/12/19 11:34:24;;;;;;;8.17;6.60;;;;;;;3.01;100.00;95511.34;4951323;29;20202;-72
2021/12/19 11:37:01;;;;;;;5.97;5.33;;;;;;;3.17;100.00;95507.00;4952445;29;20216;-72
2021/12/19 11:39:32;;;;;;;6.03;4.97;;;;;;;3.38;100.00;95506.13;4951142;28;20216;-73
2021/12/19 11:42:06;;;;;;;6.10;5.33;;;;;;;3.49;97.49;95504.13;4950898;28;20201;-72
2021/12/19 11:44:47;;;;;;;6.03;4.73;;;;;;;3.63;92.89;95491.28;4950260;29;20209;-73
2021/12/19 11:47:16;;;;;;;4.87;4.07;;;;;;;3.66;92.45;95490.47;4952632;28;20193;-73
2021/12/19 11:49:42;;;;;;;5.63;4.97;;;;;;;3.75;91.81;95489.28;4950327;28;20193;-72
2021/12/19 11:52:30;;;;;;;6.43;4.47;;;;;;;3.82;88.60;95489.22;4951347;29;20592;-72
2021/12/19 11:55:36;;;;;;;4.97;4.33;;;;;;;3.93;92.10;95487.94;4952936;28;20198;-73
2021/12/19 11:58:07;;;;;;;6.53;4.93;;;;;;;4.04;94.45;95477.81;4929045;29;20692;-72
2021/12/19 12:00:36;;;;;;;8.60;4.93;;;;;;;4.10;93.75;95465.41;4949537;28;20226;-72
2021/12/19 12:03:13;;;;;;;8.03;5.67;;;;;;;4.07;98.16;95460.03;4951766;28;20197;-72
2021/12/19 12:05:43;;;;;;;4.53;3.60;;;;;;;4.02;89.99;95455.81;4950924;29;20201;-72
2021/12/19 12:08:09;;;;;;;7.20;4.03;;;;;;;4.13;87.10;95453.78;4934451;29;20265;-72
2021/12/19 12:10:47;;;;;;;2.77;2.10;;;;;;;4.12;82.63;95448.78;4949677;28;20228;-72
2021/12/19 12:13:22;;;;;;;5.50;3.43;;;;;;;4.19;85.04;95440.59;4949249;29;20204;-72
2021/12/19 12:15:53;;;;;;;4.10;3.00;;;;;;;4.21;83.09;95430.16;4950688;29;20201;-72
2021/12/19 12:18:34;;;;;;;3.20;2.70;;;;;;;4.42;82.62;95436.06;4950320;29;20656;-72
2021/12/19 12:21:18;;;;;;;5.77;2.83;;;;;;;4.33;82.04;95427.69;4949645;28;20254;-72
2021/12/19 12:23:58;;;;;;;3.20;2.70;;;;;;;4.41;82.19;95422.97;4952247;29;20206;-72
2021/12/19 12:26:45;;;;;;;4.50;2.70;;;;;;;4.44;83.11;95420.22;4948050;29;20270;-72
2021/12/19 12:29:11;;;;;;;3.20;2.50;;;;;;;4.32;82.98;95396.41;4951915;29;20248;-72